Lougheed, Canada
Current Conditions -  °F | °C
As of 2:00 PM on Tuesday 27 Jan 2015 (Local Time) from CYLL Reporting Station
Light Snow Light Snow  
Wind Chill: 24°   Ceiling: 8500
Heat Index: 32°   Visibility: 15mi
Dew Point: 30°   Wind: 10mph
Humidity: 93%   Direction: 70°ENE
Pressure: 29.81"   Gusts: NA
Location:  52.73°N, 111.55°W
Report Text: CYLL 272100Z 07009KT 15SM -SN SCT007 BKN085 OVC250 00/M01 A2981 RMK ST3AC3CI2 SLP125
Loading
Personal Weather Stations






























Interactive Weather Map New forecast layout! Learn more

10-Day Weather Forecast

Advertisements
Track Severe Weather on mobile